Time;durP1;ratioP1;P1;durP2;ratioP2;P2;SDS_P1;SDS_P2;PMS_P1;PMS_P2;Temp;Humidity;BMP_temperature;BMP_pressure;BME280_temperature;BME280_humidity;BME280_pressure;Samples;Min_cycle;Max_cycle;Signal;HPM_P1;HPM_P2
2021/09/16 00:00:47;;;;;;;30.95;22.77;;;;;;;17.67;100.00;100157.28;5073199;28;20062;-51
2021/09/16 00:03:14;;;;;;;29.20;22.55;;;;;;;17.70;100.00;100161.53;5066459;28;20047;-52
2021/09/16 00:05:40;;;;;;;33.10;22.83;;;;;;;17.68;100.00;100153.63;5064043;28;20056;-50
2021/09/16 00:08:06;;;;;;;29.55;21.35;;;;;;;17.65;100.00;100163.72;5072180;28;20052;-51
2021/09/16 00:10:33;;;;;;;31.40;23.27;;;;;;;17.63;100.00;100161.13;5069833;28;20074;-51
2021/09/16 00:13:00;;;;;;;30.30;22.45;;;;;;;17.57;100.00;100160.78;5071426;28;20044;-53
2021/09/16 00:15:26;;;;;;;28.48;22.02;;;;;;;17.56;100.00;100159.94;5074369;28;20047;-50
2021/09/16 00:17:52;;;;;;;30.48;21.67;;;;;;;17.57;100.00;100166.16;5079200;28;20054;-50
2021/09/16 00:20:19;;;;;;;29.88;21.80;;;;;;;17.53;100.00;100170.88;5078003;28;20044;-51
2021/09/16 00:22:45;;;;;;;30.35;22.08;;;;;;;17.48;100.00;100173.06;5076832;28;20504;-51
2021/09/16 00:25:12;;;;;;;33.65;23.67;;;;;;;17.57;100.00;100172.34;5074252;28;20157;-50
2021/09/16 00:27:38;;;;;;;27.33;21.42;;;;;;;17.66;100.00;100173.47;5072796;28;20385;-50
2021/09/16 00:30:05;;;;;;;30.20;23.20;;;;;;;17.67;100.00;100176.03;5074581;28;20068;-51
2021/09/16 00:32:32;;;;;;;34.22;25.55;;;;;;;17.62;100.00;100182.72;5074464;28;20044;-53
2021/09/16 00:34:59;;;;;;;37.88;25.08;;;;;;;17.64;100.00;100181.63;5073506;28;20044;-50
2021/09/16 00:37:25;;;;;;;30.38;24.08;;;;;;;17.61;100.00;100181.84;5077435;28;20047;-50
2021/09/16 00:39:51;;;;;;;29.90;22.63;;;;;;;17.61;100.00;100163.09;5078437;28;20044;-52
2021/09/16 00:42:18;;;;;;;30.92;23.30;;;;;;;17.64;100.00;100178.09;5079312;28;20081;-51
2021/09/16 00:44:45;;;;;;;33.55;23.23;;;;;;;17.56;100.00;100159.94;5079675;28;20044;-51
2021/09/16 00:47:13;;;;;;;42.55;28.42;;;;;;;17.66;100.00;100174.31;5078313;28;20508;-51
2021/09/16 00:49:39;;;;;;;40.40;27.15;;;;;;;17.62;100.00;100170.16;5080357;28;20067;-51
2021/09/16 00:52:07;;;;;;;40.58;27.77;;;;;;;17.60;100.00;100174.78;5086137;28;20043;-51
2021/09/16 00:54:34;;;;;;;39.47;27.40;;;;;;;17.58;100.00;100178.56;5077744;28;20052;-52
2021/09/16 00:57:04;;;;;;;43.30;27.48;;;;;;;17.64;100.00;100178.94;5075959;28;20048;-51
2021/09/16 00:59:33;;;;;;;46.63;29.77;;;;;;;17.66;100.00;100179.66;5079407;28;20563;-51
2021/09/16 01:02:00;;;;;;;40.20;28.38;;;;;;;17.70;100.00;100193.69;5078522;28;20485;-51
2021/09/16 01:04:28;;;;;;;38.90;27.80;;;;;;;17.72;100.00;100191.72;5078605;28;20085;-51
2021/09/16 01:06:55;;;;;;;47.58;31.00;;;;;;;17.65;100.00;100194.03;5081632;28;20044;-50
2021/09/16 01:09:26;;;;;;;41.58;28.02;;;;;;;17.64;100.00;100202.19;5079108;28;20052;-51
2021/09/16 01:11:53;;;;;;;40.95;28.70;;;;;;;17.64;100.00;100204.84;5081928;28;20048;-51
2021/09/16 01:14:27;;;;;;;44.08;29.05;;;;;;;17.60;100.00;100211.41;5077823;28;20050;-51
2021/09/16 01:16:54;;;;;;;40.90;27.08;;;;;;;17.58;100.00;100211.53;5076229;28;20040;-50
2021/09/16 01:19:21;;;;;;;43.08;27.48;;;;;;;17.57;100.00;100208.97;5078771;28;20047;-50
2021/09/16 01:21:48;;;;;;;45.20;28.88;;;;;;;17.60;100.00;100209.59;5077213;28;20044;-50
2021/09/16 01:24:15;;;;;;;40.45;27.95;;;;;;;17.63;100.00;100211.19;5084418;28;20047;-51
2021/09/16 01:26:43;;;;;;;50.65;30.58;;;;;;;17.56;100.00;100213.47;5075337;28;20043;-51
2021/09/16 01:29:11;;;;;;;42.50;28.98;;;;;;;17.50;100.00;100213.94;5078719;28;20070;-53
2021/09/16 01:31:42;;;;;;;52.53;31.55;;;;;;;17.52;100.00;100218.22;5076398;28;20063;-51
2021/09/16 01:34:09;;;;;;;;;;;;;;;17.56;100.00;100217.97;5081058;28;20044;-51
2021/09/16 01:36:37;;;;;;;47.13;29.38;;;;;;;17.64;100.00;100223.59;5075390;28;19928;-52
2021/09/16 01:39:05;;;;;;;46.15;30.17;;;;;;;17.65;100.00;100223.50;5077585;28;20040;-51
2021/09/16 01:41:32;;;;;;;41.55;29.35;;;;;;;17.64;100.00;100219.09;5076646;28;20048;-52
2021/09/16 01:43:59;;;;;;;46.42;28.85;;;;;;;17.59;100.00;100218.59;5079221;28;20036;-52
2021/09/16 01:46:25;;;;;;;38.65;27.45;;;;;;;17.45;100.00;100202.78;5077866;28;20052;-52
2021/09/16 01:48:52;;;;;;;37.55;27.48;;;;;;;17.51;100.00;100221.88;5076339;28;20048;-53
2021/09/16 01:51:18;;;;;;;39.35;27.17;;;;;;;17.44;100.00;100225.16;5077190;28;20048;-51
2021/09/16 01:53:45;;;;;;;38.75;25.60;;;;;;;17.41;100.00;100214.69;5076238;28;20048;-51
2021/09/16 01:56:11;;;;;;;37.00;25.52;;;;;;;17.41;100.00;100222.72;5074433;28;20052;-51
2021/09/16 01:58:38;;;;;;;36.83;26.15;;;;;;;17.40;100.00;100223.69;5076259;28;20040;-52
2021/09/16 02:01:05;;;;;;;37.17;25.20;;;;;;;17.41;100.00;100223.56;5078819;28;20052;-51
2021/09/16 02:03:32;;;;;;;40.10;27.73;;;;;;;17.44;100.00;100219.81;5073018;28;20052;-52
2021/09/16 02:05:58;;;;;;;36.42;27.48;;;;;;;17.43;100.00;100226.13;5072787;28;20048;-51
2021/09/16 02:08:25;;;;;;;34.88;26.33;;;;;;;17.38;100.00;100230.97;5080298;28;20054;-51
2021/09/16 02:10:52;;;;;;;38.15;28.00;;;;;;;17.31;100.00;100235.13;5077887;28;20413;-51
2021/09/16 02:13:19;;;;;;;38.92;27.48;;;;;;;17.24;100.00;100228.53;5091462;28;20453;-51
2021/09/16 02:15:45;;;;;;;45.65;29.63;;;;;;;17.27;100.00;100233.66;5092645;28;20048;-50
2021/09/16 02:18:12;;;;;;;37.67;27.05;;;;;;;17.21;100.00;100234.97;5087325;28;20048;-51
2021/09/16 02:20:39;;;;;;;46.58;30.45;;;;;;;17.17;100.00;100225.44;5081571;28;20048;-51
2021/09/16 02:23:06;;;;;;;42.25;28.58;;;;;;;17.19;100.00;100221.69;5075286;28;20048;-51
2021/09/16 02:25:32;;;;;;;40.63;28.40;;;;;;;17.25;100.00;100223.06;5075408;28;20040;-51
2021/09/16 02:27:59;;;;;;;52.47;31.10;;;;;;;17.28;100.00;100225.50;5076707;28;20051;-57
2021/09/16 02:30:25;;;;;;;44.25;31.00;;;;;;;17.36;100.00;100228.41;5079721;28;20595;-52
2021/09/16 02:32:52;;;;;;;45.30;30.40;;;;;;;17.36;100.00;100227.56;5079818;28;20044;-52
2021/09/16 02:35:18;;;;;;;41.75;29.65;;;;;;;17.34;100.00;100218.78;5076923;28;20040;-51
2021/09/16 02:37:45;;;;;;;39.40;28.40;;;;;;;17.30;100.00;100228.06;5077388;28;20048;-51
2021/09/16 02:40:11;;;;;;;43.65;29.63;;;;;;;17.33;100.00;100228.66;5075152;28;20048;-52
2021/09/16 02:42:38;;;;;;;42.60;30.02;;;;;;;17.34;100.00;100234.84;5082170;28;20044;-50
2021/09/16 02:45:06;;;;;;;55.83;34.20;;;;;;;17.38;100.00;100225.63;5076249;28;20043;-51
2021/09/16 02:47:33;;;;;;;45.47;31.08;;;;;;;17.39;100.00;100227.34;5077531;28;20052;-51
2021/09/16 02:50:00;;;;;;;50.60;32.92;;;;;;;17.32;100.00;100231.44;5079041;28;20048;-52
2021/09/16 02:52:26;;;;;;;50.65;31.77;;;;;;;17.30;100.00;100231.59;5074578;28;20047;-51
2021/09/16 02:54:53;;;;;;;53.28;33.30;;;;;;;17.32;100.00;100234.13;5074191;28;20056;-52
2021/09/16 02:57:19;;;;;;;52.53;32.70;;;;;;;17.33;100.00;100236.69;5071174;28;20413;-53
2021/09/16 02:59:46;;;;;;;49.33;32.20;;;;;;;17.40;100.00;100237.06;5072680;28;20052;-51
2021/09/16 03:02:12;;;;;;;51.78;32.42;;;;;;;17.40;100.00;100237.06;5070860;28;20048;-52
2021/09/16 03:04:39;;;;;;;55.35;34.38;;;;;;;17.37;100.00;100240.84;5081047;28;22321;-51
2021/09/16 03:07:06;;;;;;;65.88;37.22;;;;;;;17.38;100.00;100247.03;5073078;28;20036;-51
2021/09/16 03:09:32;;;;;;;58.53;34.92;;;;;;;17.33;100.00;100250.06;5072134;28;20055;-52
2021/09/16 03:11:58;;;;;;;51.75;33.08;;;;;;;17.29;100.00;100243.25;5074684;28;20040;-51
2021/09/16 03:14:25;;;;;;;55.72;34.17;;;;;;;17.29;100.00;100259.31;5074324;28;20056;-51
2021/09/16 03:16:51;;;;;;;52.97;34.58;;;;;;;17.32;100.00;100250.19;5072822;28;20044;-52
2021/09/16 03:19:18;;;;;;;56.90;36.08;;;;;;;17.29;100.00;100251.28;5069418;28;20051;-51
2021/09/16 03:21:44;;;;;;;52.30;33.92;;;;;;;17.25;100.00;100249.81;5074226;28;20048;-52
2021/09/16 03:24:11;;;;;;;57.70;36.72;;;;;;;17.29;100.00;100256.66;5078082;28;20063;-51
2021/09/16 03:26:37;;;;;;;55.72;37.17;;;;;;;17.25;100.00;100249.81;5074914;28;20056;-51
2021/09/16 03:29:04;;;;;;;51.42;33.15;;;;;;;17.18;100.00;100244.06;5074185;28;20522;-52
2021/09/16 03:31:30;;;;;;;63.30;37.47;;;;;;;17.17;100.00;100250.38;5076031;28;20071;-51
2021/09/16 03:33:57;;;;;;;65.68;36.70;;;;;;;17.17;100.00;100244.19;5077160;28;20151;-56
2021/09/16 03:36:23;;;;;;;67.78;40.45;;;;;;;17.19;100.00;100248.44;5075830;28;20386;-50
2021/09/16 03:38:50;;;;;;;62.58;37.10;;;;;;;17.19;100.00;100248.44;5073337;28;20048;-51
2021/09/16 03:41:16;;;;;;;62.45;37.08;;;;;;;17.17;100.00;100244.19;5074419;28;20039;-51
2021/09/16 03:43:43;;;;;;;64.72;37.38;;;;;;;17.25;100.00;100244.47;5076488;28;20040;-50
2021/09/16 03:46:09;;;;;;;61.13;37.00;;;;;;;17.26;100.00;100253.34;5077033;28;20055;-51
2021/09/16 03:48:36;;;;;;;64.78;37.80;;;;;;;17.21;100.00;100258.19;5078039;28;21366;-51
2021/09/16 03:51:02;;;;;;;57.33;35.83;;;;;;;17.18;100.00;100248.56;5076222;28;20417;-51
2021/09/16 03:53:29;;;;;;;61.67;37.80;;;;;;;17.19;100.00;100253.81;5070251;28;20055;-51
2021/09/16 03:55:55;;;;;;;65.15;37.80;;;;;;;17.18;100.00;100257.44;5076981;28;20051;-51
2021/09/16 03:58:22;;;;;;;62.05;36.97;;;;;;;17.12;100.00;100249.91;5078585;28;20067;-51
2021/09/16 04:00:48;;;;;;;63.88;37.17;;;;;;;17.13;100.00;100256.97;5066936;28;20052;-50
2021/09/16 04:03:15;;;;;;;60.58;35.95;;;;;;;17.09;100.00;100255.50;5074535;28;20131;-51
2021/09/16 04:05:41;;;;;;;61.72;38.58;;;;;;;17.12;100.00;100251.72;5078924;28;20048;-52
2021/09/16 04:08:08;;;;;;;64.55;38.60;;;;;;;17.19;100.00;100253.81;5077756;28;20099;-52
2021/09/16 04:10:35;;;;;;;61.03;37.38;;;;;;;17.21;100.00;100250.16;5059469;28;20738;-50
2021/09/16 04:13:01;;;;;;;61.20;38.55;;;;;;;17.23;100.00;100258.94;5073145;28;20052;-50
2021/09/16 04:15:28;;;;;;;56.15;36.10;;;;;;;17.19;100.00;100261.84;5074695;28;20521;-51
2021/09/16 04:17:54;;;;;;;53.47;33.35;;;;;;;17.19;100.00;100253.81;5076404;28;20040;-51
2021/09/16 04:20:21;;;;;;;48.83;32.65;;;;;;;17.22;100.00;100257.22;5071885;28;20052;-51
2021/09/16 04:22:47;;;;;;;47.78;31.13;;;;;;;17.21;100.00;100261.72;5077167;28;20519;-51
2021/09/16 04:25:14;;;;;;;45.22;30.38;;;;;;;17.18;100.00;100257.44;5072795;28;20063;-52
2021/09/16 04:27:41;;;;;;;44.13;30.23;;;;;;;17.15;100.00;100252.34;5073185;28;20054;-51
2021/09/16 04:30:08;;;;;;;43.17;30.20;;;;;;;17.11;100.00;100253.56;5077394;28;20048;-52
2021/09/16 04:32:35;;;;;;;42.60;29.02;;;;;;;17.15;100.00;100264.88;5074236;28;20568;-51
2021/09/16 04:35:01;;;;;;;33.17;23.45;;;;;;;17.02;100.00;100240.84;5073275;28;20063;-52
2021/09/16 04:37:28;;;;;;;31.20;23.05;;;;;;;17.05;100.00;100258.50;5072726;28;20041;-51
2021/09/16 04:39:54;;;;;;;26.70;19.92;;;;;;;16.95;100.00;100263.72;5074675;28;20048;-51
2021/09/16 04:42:21;;;;;;;24.08;19.05;;;;;;;16.84;100.00;100259.16;5076845;28;20051;-50
2021/09/16 04:44:47;;;;;;;26.15;18.92;;;;;;;16.77;100.00;100265.09;5075419;28;20174;-52
2021/09/16 04:47:14;;;;;;;22.52;16.52;;;;;;;16.69;100.00;100268.31;5073997;28;20058;-51
2021/09/16 04:49:40;;;;;;;26.88;18.10;;;;;;;16.65;100.00;100271.34;5074050;28;20050;-53
2021/09/16 04:52:07;;;;;;;19.73;15.90;;;;;;;16.52;100.00;100267.84;5076410;28;20048;-51
2021/09/16 04:54:33;;;;;;;22.20;17.08;;;;;;;16.48;100.00;100261.88;5073158;28;20445;-51
2021/09/16 04:57:00;;;;;;;20.45;15.70;;;;;;;16.46;100.00;100269.13;5076576;28;20047;-50
2021/09/16 04:59:26;;;;;;;19.25;15.13;;;;;;;16.41;100.00;100272.13;5070113;28;20044;-51
2021/09/16 05:01:52;;;;;;;22.20;16.15;;;;;;;16.40;100.00;100278.44;5077463;28;20505;-51
2021/09/16 05:04:19;;;;;;;23.45;17.35;;;;;;;16.41;100.00;100282.81;5075018;28;20058;-51
2021/09/16 05:06:46;;;;;;;22.33;16.63;;;;;;;16.41;100.00;100280.16;5073050;28;20048;-51
2021/09/16 05:09:12;;;;;;;19.38;13.60;;;;;;;16.38;100.00;100292.88;5075794;28;20512;-54
2021/09/16 05:11:41;;;;;;;18.42;14.10;;;;;;;16.23;100.00;100272.63;5076069;28;20044;-52
2021/09/16 05:14:08;;;;;;;23.98;16.38;;;;;;;16.29;100.00;100298.91;5075432;28;20046;-51
2021/09/16 05:16:35;;;;;;;20.42;15.25;;;;;;;16.31;100.00;100289.81;5070822;28;20052;-50
2021/09/16 05:19:02;;;;;;;18.83;14.68;;;;;;;16.34;100.00;100299.44;5076877;28;20063;-51
2021/09/16 05:21:29;;;;;;;17.55;14.38;;;;;;;16.30;100.00;100301.47;5072998;28;20056;-53
2021/09/16 05:23:56;;;;;;;20.30;14.88;;;;;;;16.29;100.00;100299.75;5080091;28;20082;-52
2021/09/16 05:26:23;;;;;;;16.98;13.68;;;;;;;16.29;100.00;100306.91;5077015;28;20044;-52
2021/09/16 05:28:50;;;;;;;21.50;15.82;;;;;;;16.28;100.00;100307.88;5074099;28;20048;-51
2021/09/16 05:31:16;;;;;;;17.92;13.48;;;;;;;16.20;100.00;100308.44;5069004;28;20043;-51
2021/09/16 05:33:43;;;;;;;20.30;14.68;;;;;;;16.16;100.00;100325.66;5074374;28;20052;-53
2021/09/16 05:36:10;;;;;;;22.05;15.55;;;;;;;16.13;100.00;100320.53;5078632;28;20413;-53
2021/09/16 05:38:36;;;;;;;17.63;14.55;;;;;;;16.13;100.00;100324.03;5080006;28;20052;-52
2021/09/16 05:41:03;;;;;;;19.50;15.60;;;;;;;16.18;100.00;100326.41;5072974;28;20052;-52
2021/09/16 05:43:31;;;;;;;24.15;16.13;;;;;;;16.15;100.00;100326.63;5076055;28;20055;-52
2021/09/16 05:45:58;;;;;;;22.50;15.85;;;;;;;16.09;100.00;100330.56;5076963;28;20128;-53
2021/09/16 05:48:25;;;;;;;21.10;14.65;;;;;;;16.05;100.00;100328.25;5075013;28;20493;-51
2021/09/16 05:50:51;;;;;;;21.80;16.00;;;;;;;16.02;100.00;100333.78;5075873;28;20052;-51
2021/09/16 05:53:17;;;;;;;20.50;16.02;;;;;;;16.00;100.00;100341.91;5070906;28;20048;-52
2021/09/16 05:55:45;;;;;;;23.25;16.55;;;;;;;16.07;100.00;100340.50;5069042;28;20071;-51
2021/09/16 05:58:12;;;;;;;20.52;15.82;;;;;;;16.12;100.00;100334.84;5069372;28;20517;-51
2021/09/16 06:00:39;;;;;;;21.63;15.35;;;;;;;16.14;100.00;100340.94;5071496;28;20287;-52
2021/09/16 06:03:05;;;;;;;21.20;16.30;;;;;;;16.12;100.00;100332.16;5071962;28;20638;-50
2021/09/16 06:05:32;;;;;;;20.45;15.52;;;;;;;16.16;100.00;100340.81;5077361;28;20162;-52
2021/09/16 06:07:58;;;;;;;23.15;16.25;;;;;;;16.14;100.00;100336.44;5074963;28;20054;-53
2021/09/16 06:10:25;;;;;;;19.60;15.38;;;;;;;16.12;100.00;100337.50;5074748;28;20055;-52
2021/09/16 06:12:51;;;;;;;19.20;14.25;;;;;;;16.17;100.00;100348.75;5072826;28;20052;-51
2021/09/16 06:15:18;;;;;;;19.00;14.60;;;;;;;16.15;100.00;100350.66;5062977;28;20048;-51
2021/09/16 06:17:45;;;;;;;19.88;14.95;;;;;;;16.18;100.00;100355.78;5077775;28;20044;-51
2021/09/16 06:20:12;;;;;;;19.30;14.73;;;;;;;16.27;100.00;100354.28;5075250;28;20504;-52
2021/09/16 06:22:38;;;;;;;18.50;12.90;;;;;;;16.27;100.00;100355.13;5072713;28;20040;-51
2021/09/16 06:25:06;;;;;;;18.40;13.52;;;;;;;16.26;100.00;100353.41;5071262;28;20043;-52
2021/09/16 06:27:33;;;;;;;17.83;13.30;;;;;;;16.25;100.00;100361.53;5071816;28;20047;-52
2021/09/16 06:30:01;;;;;;;15.80;12.43;;;;;;;16.23;100.00;100363.47;5070080;28;20518;-51
2021/09/16 06:32:27;;;;;;;14.98;12.52;;;;;;;16.19;100.00;100362.84;5071077;28;20048;-51
2021/09/16 06:34:53;;;;;;;17.95;13.40;;;;;;;16.04;100.00;100346.09;5070053;28;20044;-51
2021/09/16 06:37:20;;;;;;;17.83;12.57;;;;;;;16.19;100.00;100362.84;5062758;28;20600;-50
2021/09/16 06:39:47;;;;;;;12.18;10.75;;;;;;;16.27;97.34;100365.81;5072499;28;20496;-50
2021/09/16 06:42:13;;;;;;;13.93;10.85;;;;;;;16.37;99.89;100374.88;5078206;28;20044;-51
2021/09/16 06:44:40;;;;;;;14.25;11.32;;;;;;;16.43;100.00;100377.13;5068207;28;20093;-51
2021/09/16 06:47:06;;;;;;;12.88;10.55;;;;;;;16.49;100.00;100370.50;5071905;28;20055;-50
2021/09/16 06:49:39;;;;;;;15.52;11.75;;;;;;;16.54;98.98;100371.00;5075621;28;20063;-50
2021/09/16 06:52:05;;;;;;;13.40;10.95;;;;;;;16.56;98.02;100376.22;5080659;28;20044;-52
2021/09/16 06:54:32;;;;;;;13.85;10.40;;;;;;;16.59;96.72;100381.38;5075371;28;20252;-52
2021/09/16 06:56:58;;;;;;;15.15;10.50;;;;;;;16.59;95.29;100376.88;5075594;28;20044;-51
2021/09/16 06:59:25;;;;;;;11.98;10.77;;;;;;;16.57;96.14;100372.59;5072618;28;20056;-52
2021/09/16 07:01:51;;;;;;;11.88;10.48;;;;;;;16.59;98.42;100381.38;5073512;28;20148;-52
2021/09/16 07:04:18;;;;;;;13.25;11.25;;;;;;;16.55;97.58;100387.88;5078342;28;20131;-52
2021/09/16 07:06:45;;;;;;;13.93;11.50;;;;;;;16.53;98.93;100384.50;5079817;28;20062;-51
2021/09/16 07:09:12;;;;;;;15.18;10.55;;;;;;;16.51;95.68;100389.09;5081239;28;20561;-51
2021/09/16 07:11:39;;;;;;;14.98;10.57;;;;;;;16.45;96.07;100391.22;5077820;28;20417;-52
2021/09/16 07:14:05;;;;;;;14.48;10.75;;;;;;;16.47;98.47;100391.97;5076109;28;20142;-52
2021/09/16 07:16:32;;;;;;;13.20;10.95;;;;;;;16.42;96.89;100396.78;5072099;28;20577;-53
2021/09/16 07:18:58;;;;;;;14.35;10.38;;;;;;;16.36;94.25;100394.56;5075789;28;20039;-52
2021/09/16 07:21:25;;;;;;;13.55;10.82;;;;;;;16.35;95.46;100405.38;5079512;28;20066;-52
2021/09/16 07:23:52;;;;;;;15.00;11.60;;;;;;;16.29;94.22;100414.66;5082702;28;20048;-52
2021/09/16 07:26:24;;;;;;;15.55;11.75;;;;;;;16.25;93.79;100405.13;5083485;28;20043;-51
2021/09/16 07:28:55;;;;;;;15.70;12.05;;;;;;;16.23;94.85;100415.06;5093998;28;20043;-51
2021/09/16 07:31:22;;;;;;;15.65;10.90;;;;;;;16.24;89.96;100410.59;5084440;28;20166;-52
2021/09/16 07:33:48;;;;;;;14.10;10.88;;;;;;;16.33;91.70;100417.97;5080522;28;20962;-52
2021/09/16 07:36:15;;;;;;;14.38;10.35;;;;;;;16.45;91.50;100419.78;5077509;28;20588;-50
2021/09/16 07:38:41;;;;;;;13.32;10.07;;;;;;;16.56;86.85;100424.34;5083831;28;20062;-52
2021/09/16 07:41:08;;;;;;;13.10;10.05;;;;;;;16.67;87.49;100427.16;5078609;28;20040;-52
2021/09/16 07:43:35;;;;;;;12.68;9.70;;;;;;;16.68;87.06;100431.56;5075465;28;20398;-52
2021/09/16 07:46:01;;;;;;;10.27;8.30;;;;;;;16.74;86.23;100433.78;5075650;28;20043;-51
2021/09/16 07:48:28;;;;;;;10.30;7.30;;;;;;;16.86;85.40;100440.91;5077023;28;20115;-52
2021/09/16 07:50:55;;;;;;;9.70;6.90;;;;;;;16.90;82.71;100437.03;5072395;28;20043;-51
2021/09/16 07:53:21;;;;;;;7.07;6.35;;;;;;;16.91;82.59;100440.56;5076092;28;20050;-51
2021/09/16 07:55:48;;;;;;;7.47;6.35;;;;;;;17.10;83.28;100435.59;5070165;28;20052;-51
2021/09/16 07:58:19;;;;;;;12.52;6.55;;;;;;;17.30;77.00;100448.38;5072271;28;20047;-51
2021/09/16 08:00:47;;;;;;;6.90;5.70;;;;;;;17.42;77.06;100451.97;5075254;28;20063;-51
2021/09/16 08:03:13;;;;;;;7.03;6.32;;;;;;;17.57;76.30;100445.47;5075396;28;20471;-51
2021/09/16 08:05:42;;;;;;;7.15;5.78;;;;;;;17.81;72.22;100454.34;5073757;28;20527;-52
2021/09/16 08:08:08;;;;;;;6.60;5.25;;;;;;;17.99;71.35;100456.59;5069710;28;20056;-52
2021/09/16 08:10:35;;;;;;;7.03;5.60;;;;;;;18.21;73.10;100452.13;5073924;28;20536;-52
2021/09/16 08:13:03;;;;;;;7.80;6.05;;;;;;;18.48;70.47;100459.84;5068631;28;20051;-51
2021/09/16 08:15:29;;;;;;;7.22;5.55;;;;;;;18.70;68.56;100464.41;5069562;28;20047;-52
2021/09/16 08:17:57;;;;;;;5.80;5.18;;;;;;;18.73;65.75;100463.31;5072661;28;20067;-51
2021/09/16 08:20:24;;;;;;;7.35;5.38;;;;;;;18.62;63.79;100472.19;5073374;28;20040;-52
2021/09/16 08:22:50;;;;;;;6.53;4.90;;;;;;;18.58;65.02;100481.41;5074348;28;20052;-52
2021/09/16 08:25:17;;;;;;;8.63;5.75;;;;;;;18.62;66.52;100484.75;5074198;28;20043;-54
2021/09/16 08:27:43;;;;;;;6.00;5.40;;;;;;;18.71;67.06;100486.72;5072557;28;20557;-51
2021/09/16 08:30:11;;;;;;;6.03;5.45;;;;;;;18.82;67.13;100484.03;5069510;28;20055;-52
2021/09/16 08:33:03;;;;;;;5.50;4.75;;;;;;;18.63;63.52;100476.59;5075685;28;20916;-51
2021/09/16 08:35:30;;;;;;;7.30;4.72;;;;;;;18.36;65.39;100479.56;5073023;28;20047;-50
2021/09/16 08:37:56;;;;;;;5.60;4.00;;;;;;;18.41;65.55;100484.59;5072692;28;20052;-52
2021/09/16 08:40:23;;;;;;;5.53;4.28;;;;;;;18.44;64.65;100484.31;5068530;28;20047;-52
2021/09/16 08:42:50;;;;;;;8.88;4.30;;;;;;;18.44;66.32;100487.84;5068658;28;20078;-51
2021/09/16 08:45:18;;;;;;;7.18;3.30;;;;;;;18.60;66.17;100495.59;5066248;28;20039;-52
2021/09/16 08:47:46;;;;;;;9.57;3.40;;;;;;;18.66;64.87;100499.63;5066195;28;20052;-52
2021/09/16 08:50:14;;;;;;;6.65;3.80;;;;;;;18.76;67.75;100490.72;5068262;28;20052;-52
2021/09/16 08:52:44;;;;;;;4.50;2.83;;;;;;;18.86;66.09;100491.72;5073922;28;20054;-53
2021/09/16 08:55:13;;;;;;;3.63;2.22;;;;;;;18.79;65.20;100498.53;5071328;28;20516;-52
2021/09/16 08:57:43;;;;;;;3.85;2.30;;;;;;;18.64;64.86;100482.81;5065675;28;20420;-51
2021/09/16 09:00:14;;;;;;;2.95;2.13;;;;;;;18.82;65.04;100506.34;5072045;28;20048;-52
2021/09/16 09:02:40;;;;;;;;;;;;;;;19.38;62.31;100500.03;5069569;28;20055;-52
2021/09/16 09:05:08;;;;;;;3.75;1.80;;;;;;;19.84;60.93;100500.66;5078115;28;19920;-51
2021/09/16 09:07:43;;;;;;;2.17;1.50;;;;;;;20.46;59.57;100488.28;5069269;28;20079;-52
2021/09/16 09:10:31;;;;;;;1.63;1.00;;;;;;;20.99;55.25;100489.78;5068720;28;20047;-52
2021/09/16 09:12:58;;;;;;;1.92;1.42;;;;;;;21.32;56.52;100491.34;5076308;28;20047;-52
2021/09/16 09:15:25;;;;;;;2.05;0.80;;;;;;;21.48;51.72;100500.72;5072356;28;20051;-54
2021/09/16 09:18:05;;;;;;;2.78;1.00;;;;;;;21.56;52.66;100504.44;5073546;28;20062;-52
2021/09/16 09:20:34;;;;;;;3.50;1.05;;;;;;;21.29;54.26;100512.28;5069229;28;20054;-51
2021/09/16 09:23:20;;;;;;;0.95;0.88;;;;;;;21.04;52.95;100510.06;5081409;28;20047;-52
2021/09/16 09:25:47;;;;;;;4.95;1.35;;;;;;;20.80;54.49;100513.06;5073237;28;20515;-51
2021/09/16 09:28:26;;;;;;;3.08;1.10;;;;;;;20.44;56.11;100518.00;5080520;28;20040;-52
2021/09/16 09:30:53;;;;;;;1.70;1.07;;;;;;;20.23;58.36;100511.72;5073453;28;20769;-51
2021/09/16 09:33:30;;;;;;;2.80;1.42;;;;;;;20.04;57.60;100508.88;5082168;28;20050;-51
2021/09/16 09:36:06;;;;;;;3.15;1.40;;;;;;;20.08;56.28;100518.41;5078104;28;20050;-51
2021/09/16 09:38:33;;;;;;;2.15;1.10;;;;;;;19.80;57.07;100515.34;5074487;28;20040;-52
2021/09/16 09:41:03;;;;;;;3.03;1.25;;;;;;;19.65;58.37;100521.16;5078642;28;20055;-53
2021/09/16 09:43:36;;;;;;;2.17;1.30;;;;;;;19.46;58.99;100511.03;5074571;28;20103;-52
2021/09/16 09:46:16;;;;;;;3.70;1.70;;;;;;;19.52;60.83;100515.91;5076468;28;21419;-52
2021/09/16 09:48:45;;;;;;;2.20;1.58;;;;;;;19.70;59.19;100521.59;5068962;28;20048;-52
2021/09/16 09:51:13;;;;;;;2.45;1.58;;;;;;;19.83;56.87;100512.38;5075364;28;20044;-52
2021/09/16 09:53:43;;;;;;;2.60;1.52;;;;;;;19.81;58.34;100490.19;5067763;28;20607;-52
2021/09/16 09:56:30;;;;;;;4.15;1.70;;;;;;;20.09;57.41;100479.78;5079545;28;20097;-52
2021/09/16 09:58:56;;;;;;;2.47;2.25;;;;;;;20.33;56.24;100502.72;5077087;28;20052;-54
2021/09/16 10:01:36;;;;;;;4.97;2.42;;;;;;;20.45;57.32;100500.88;5072468;28;20048;-53
2021/09/16 10:04:27;;;;;;;2.67;2.38;;;;;;;20.33;55.28;100504.56;5065791;28;20047;-50
2021/09/16 10:06:59;;;;;;;4.30;2.57;;;;;;;20.24;56.83;100516.13;5067212;28;20040;-53
2021/09/16 10:09:26;;;;;;;4.93;2.55;;;;;;;20.12;57.29;100522.53;5065565;28;20572;-51
2021/09/16 10:11:57;;;;;;;2.70;2.42;;;;;;;20.04;59.02;100523.19;5074009;28;20052;-52
2021/09/16 10:14:24;;;;;;;3.08;2.70;;;;;;;20.01;56.63;100514.50;5061070;28;20382;-52
2021/09/16 10:16:51;;;;;;;4.43;3.00;;;;;;;20.04;57.38;100519.63;5070585;28;20070;-51
2021/09/16 10:19:17;;;;;;;3.50;2.75;;;;;;;20.01;56.10;100511.81;5079485;28;20514;-52
2021/09/16 10:21:44;;;;;;;3.97;3.10;;;;;;;20.11;56.39;100512.78;5081767;28;20052;-52
2021/09/16 10:24:16;;;;;;;3.80;2.60;;;;;;;20.25;57.64;100509.75;5075780;28;20040;-53
2021/09/16 10:26:47;;;;;;;3.95;3.20;;;;;;;20.23;56.31;100514.41;5079564;28;20048;-52
2021/09/16 10:29:26;;;;;;;5.40;3.50;;;;;;;20.13;57.44;100510.81;5070273;28;20674;-53
2021/09/16 10:32:04;;;;;;;5.13;3.28;;;;;;;20.22;57.74;100504.63;5075516;28;20047;-53
2021/09/16 10:34:59;;;;;;;4.47;3.05;;;;;;;20.06;56.93;100493.47;5067217;28;20684;-54
2021/09/16 10:37:34;;;;;;;5.68;3.25;;;;;;;20.17;55.72;100515.78;5075937;28;20727;-52
2021/09/16 10:40:28;;;;;;;4.50;3.00;;;;;;;20.12;57.59;100517.16;5074940;28;20055;-52
2021/09/16 10:43:00;;;;;;;3.22;2.92;;;;;;;20.12;57.14;100519.84;5075444;28;20398;-53
2021/09/16 10:45:35;;;;;;;7.75;3.60;;;;;;;20.10;60.42;100525.38;5074098;28;20099;-52
2021/09/16 10:48:14;;;;;;;5.70;2.70;;;;;;;19.87;57.92;100531.81;5071155;28;20051;-52
2021/09/16 10:50:54;;;;;;;3.58;3.05;;;;;;;19.67;59.54;100529.94;5076109;28;20122;-53
2021/09/16 10:53:45;;;;;;;3.05;2.80;;;;;;;19.63;59.27;100528.47;5074903;28;20075;-53
2021/09/16 10:56:35;;;;;;;4.22;2.80;;;;;;;19.50;59.13;100501.78;5074737;28;20036;-52
2021/09/16 10:59:02;;;;;;;4.78;3.25;;;;;;;19.61;59.28;100528.59;5076406;28;20047;-51
2021/09/16 11:01:50;;;;;;;4.65;2.95;;;;;;;19.52;60.24;100526.66;5068723;28;20489;-53
2021/09/16 11:04:18;;;;;;;2.95;2.75;;;;;;;19.53;60.21;100531.03;5073001;28;20044;-51
2021/09/16 11:06:45;;;;;;;5.50;3.13;;;;;;;19.50;59.68;100523.28;5072773;28;20610;-54
2021/09/16 11:09:13;;;;;;;3.63;2.92;;;;;;;19.43;61.34;100522.88;5078261;28;20054;-52
2021/09/16 11:11:50;;;;;;;3.45;3.00;;;;;;;19.31;61.13;100523.88;5076478;28;20040;-52
2021/09/16 11:14:35;;;;;;;3.90;3.00;;;;;;;19.30;60.34;100527.53;5075307;28;20052;-51